sensor_id;sensor_type;location;lat;lon;timestamp;temperature;humidity
23010;DHT22;11671;49.990;8.028;2023-02-15T00:01:19;4.40;99.90
23010;DHT22;11671;49.990;8.028;2023-02-15T00:03:44;4.40;99.90
23010;DHT22;11671;49.990;8.028;2023-02-15T00:06:10;4.40;99.90
23010;DHT22;11671;49.990;8.028;2023-02-15T00:08:35;4.40;99.90
23010;DHT22;11671;49.990;8.028;2023-02-15T00:11:08;4.40;99.90
23010;DHT22;11671;49.990;8.028;2023-02-15T00:13:34;4.40;99.90
23010;DHT22;11671;49.990;8.028;2023-02-15T00:16:03;4.40;99.90
23010;DHT22;11671;49.990;8.028;2023-02-15T00:18:29;4.40;99.90
23010;DHT22;11671;49.990;8.028;2023-02-15T00:20:55;4.40;99.90
23010;DHT22;11671;49.990;8.028;2023-02-15T00:23:20;4.30;99.90
23010;DHT22;11671;49.990;8.028;2023-02-15T00:25:46;4.30;99.90
23010;DHT22;11671;49.990;8.028;2023-02-15T00:28:11;4.20;99.90
23010;DHT22;11671;49.990;8.028;2023-02-15T00:30:37;4.20;99.90
23010;DHT22;11671;49.990;8.028;2023-02-15T00:33:02;4.10;99.90
23010;DHT22;11671;49.990;8.028;2023-02-15T00:35:28;4.00;99.90
23010;DHT22;11671;49.990;8.028;2023-02-15T00:37:53;4.00;99.90
23010;DHT22;11671;49.990;8.028;2023-02-15T00:40:20;4.00;99.90
23010;DHT22;11671;49.990;8.028;2023-02-15T00:42:45;4.00;99.90
23010;DHT22;11671;49.990;8.028;2023-02-15T00:45:11;4.10;99.90
23010;DHT22;11671;49.990;8.028;2023-02-15T00:47:36;4.10;99.90
23010;DHT22;11671;49.990;8.028;2023-02-15T00:50:02;4.00;99.90
23010;DHT22;11671;49.990;8.028;2023-02-15T00:52:28;4.00;99.90
23010;DHT22;11671;49.990;8.028;2023-02-15T00:54:54;3.90;99.90
23010;DHT22;11671;49.990;8.028;2023-02-15T00:57:19;4.00;99.90
23010;DHT22;11671;49.990;8.028;2023-02-15T00:59:45;3.90;99.90
23010;DHT22;11671;49.990;8.028;2023-02-15T01:02:10;4.00;99.90
23010;DHT22;11671;49.990;8.028;2023-02-15T01:04:36;3.90;99.90
23010;DHT22;11671;49.990;8.028;2023-02-15T01:07:02;3.80;99.90
23010;DHT22;11671;49.990;8.028;2023-02-15T01:09:28;3.90;99.90
23010;DHT22;11671;49.990;8.028;2023-02-15T01:11:54;3.90;99.90
23010;DHT22;11671;49.990;8.028;2023-02-15T01:14:20;3.90;99.90
23010;DHT22;11671;49.990;8.028;2023-02-15T01:16:45;3.90;99.90
23010;DHT22;11671;49.990;8.028;2023-02-15T01:19:11;4.00;99.90
23010;DHT22;11671;49.990;8.028;2023-02-15T01:21:37;3.90;99.90
23010;DHT22;11671;49.990;8.028;2023-02-15T01:24:02;3.90;99.90
23010;DHT22;11671;49.990;8.028;2023-02-15T01:26:28;3.90;99.90
23010;DHT22;11671;49.990;8.028;2023-02-15T01:28:53;3.90;99.90
23010;DHT22;11671;49.990;8.028;2023-02-15T01:31:20;3.90;99.90
23010;DHT22;11671;49.990;8.028;2023-02-15T01:33:48;3.80;99.90
23010;DHT22;11671;49.990;8.028;2023-02-15T01:36:14;3.80;99.90
23010;DHT22;11671;49.990;8.028;2023-02-15T01:38:42;3.80;99.90
23010;DHT22;11671;49.990;8.028;2023-02-15T01:41:08;3.80;99.90
23010;DHT22;11671;49.990;8.028;2023-02-15T01:43:48;3.80;99.90
23010;DHT22;11671;49.990;8.028;2023-02-15T01:46:16;3.90;99.90
23010;DHT22;11671;49.990;8.028;2023-02-15T01:48:48;3.90;99.90
23010;DHT22;11671;49.990;8.028;2023-02-15T01:51:18;3.80;99.90
23010;DHT22;11671;49.990;8.028;2023-02-15T01:54:01;3.70;99.90
23010;DHT22;11671;49.990;8.028;2023-02-15T01:56:30;3.70;99.90
23010;DHT22;11671;49.990;8.028;2023-02-15T01:59:00;3.70;99.90
23010;DHT22;11671;49.990;8.028;2023-02-15T02:01:28;3.70;99.90
23010;DHT22;11671;49.990;8.028;2023-02-15T02:06:24;3.60;99.90
23010;DHT22;11671;49.990;8.028;2023-02-15T02:08:50;3.50;99.90
23010;DHT22;11671;49.990;8.028;2023-02-15T02:11:16;3.40;99.90
23010;DHT22;11671;49.990;8.028;2023-02-15T02:13:43;3.40;99.90
23010;DHT22;11671;49.990;8.028;2023-02-15T02:34:05;3.50;99.90
23010;DHT22;11671;49.990;8.028;2023-02-15T02:36:54;3.50;99.90
23010;DHT22;11671;49.990;8.028;2023-02-15T02:42:29;3.50;99.90
23010;DHT22;11671;49.990;8.028;2023-02-15T02:45:20;3.50;99.90
23010;DHT22;11671;49.990;8.028;2023-02-15T02:47:50;3.40;99.90
23010;DHT22;11671;49.990;8.028;2023-02-15T02:50:23;3.40;99.90
23010;DHT22;11671;49.990;8.028;2023-02-15T02:52:52;3.30;99.90
23010;DHT22;11671;49.990;8.028;2023-02-15T03:00:25;3.20;99.90
23010;DHT22;11671;49.990;8.028;2023-02-15T03:02:59;3.30;99.90
23010;DHT22;11671;49.990;8.028;2023-02-15T03:05:31;3.20;99.90
23010;DHT22;11671;49.990;8.028;2023-02-15T03:07:58;3.20;99.90
23010;DHT22;11671;49.990;8.028;2023-02-15T03:10:27;3.20;99.90
23010;DHT22;11671;49.990;8.028;2023-02-15T03:12:54;3.20;99.90
23010;DHT22;11671;49.990;8.028;2023-02-15T03:15:25;3.20;99.90
23010;DHT22;11671;49.990;8.028;2023-02-15T03:17:57;3.20;99.90
23010;DHT22;11671;49.990;8.028;2023-02-15T03:20:33;3.20;99.90
23010;DHT22;11671;49.990;8.028;2023-02-15T03:23:07;3.10;99.90
23010;DHT22;11671;49.990;8.028;2023-02-15T03:25:40;3.10;99.90
23010;DHT22;11671;49.990;8.028;2023-02-15T03:28:10;3.10;99.90
23010;DHT22;11671;49.990;8.028;2023-02-15T03:30:38;3.10;99.90
23010;DHT22;11671;49.990;8.028;2023-02-15T03:33:06;3.10;99.90
23010;DHT22;11671;49.990;8.028;2023-02-15T03:35:39;3.10;99.90
23010;DHT22;11671;49.990;8.028;2023-02-15T03:38:07;3.20;99.90
23010;DHT22;11671;49.990;8.028;2023-02-15T03:40:40;3.20;99.90
23010;DHT22;11671;49.990;8.028;2023-02-15T03:43:50;3.10;99.90
23010;DHT22;11671;49.990;8.028;2023-02-15T03:46:40;3.00;99.90
23010;DHT22;11671;49.990;8.028;2023-02-15T03:51:46;3.00;99.90
23010;DHT22;11671;49.990;8.028;2023-02-15T03:54:15;3.00;99.90
23010;DHT22;11671;49.990;8.028;2023-02-15T03:57:05;3.00;99.90
23010;DHT22;11671;49.990;8.028;2023-02-15T03:59:50;2.90;99.90
23010;DHT22;11671;49.990;8.028;2023-02-15T04:05:28;2.90;99.90
23010;DHT22;11671;49.990;8.028;2023-02-15T04:07:53;3.00;99.90
23010;DHT22;11671;49.990;8.028;2023-02-15T04:10:19;2.90;99.90
23010;DHT22;11671;49.990;8.028;2023-02-15T04:13:03;2.90;99.90
23010;DHT22;11671;49.990;8.028;2023-02-15T04:15:28;2.90;99.90
23010;DHT22;11671;49.990;8.028;2023-02-15T04:18:13;3.00;99.90
23010;DHT22;11671;49.990;8.028;2023-02-15T04:20:38;3.00;99.90
23010;DHT22;11671;49.990;8.028;2023-02-15T04:23:22;3.10;99.90
23010;DHT22;11671;49.990;8.028;2023-02-15T04:26:06;3.10;99.90
23010;DHT22;11671;49.990;8.028;2023-02-15T04:28:32;3.20;99.90
23010;DHT22;11671;49.990;8.028;2023-02-15T04:30:57;3.20;99.90
23010;DHT22;11671;49.990;8.028;2023-02-15T04:33:23;3.30;99.90
23010;DHT22;11671;49.990;8.028;2023-02-15T04:35:48;3.20;99.90
23010;DHT22;11671;49.990;8.028;2023-02-15T04:38:14;3.30;99.90
23010;DHT22;11671;49.990;8.028;2023-02-15T04:40:40;3.20;99.90
23010;DHT22;11671;49.990;8.028;2023-02-15T04:43:05;3.20;99.90
23010;DHT22;11671;49.990;8.028;2023-02-15T04:45:31;3.20;99.90
23010;DHT22;11671;49.990;8.028;2023-02-15T04:47:56;3.30;99.90
23010;DHT22;11671;49.990;8.028;2023-02-15T04:50:22;3.30;99.90
23010;DHT22;11671;49.990;8.028;2023-02-15T04:52:47;3.30;99.90
23010;DHT22;11671;49.990;8.028;2023-02-15T04:55:13;3.30;99.90
23010;DHT22;11671;49.990;8.028;2023-02-15T04:57:39;3.40;99.90
23010;DHT22;11671;49.990;8.028;2023-02-15T05:00:05;3.50;99.90
23010;DHT22;11671;49.990;8.028;2023-02-15T05:02:31;3.50;99.90
23010;DHT22;11671;49.990;8.028;2023-02-15T05:04:56;3.60;99.90
23010;DHT22;11671;49.990;8.028;2023-02-15T05:07:22;3.60;99.90
23010;DHT22;11671;49.990;8.028;2023-02-15T05:09:47;3.70;99.90
23010;DHT22;11671;49.990;8.028;2023-02-15T05:12:13;3.60;99.90
23010;DHT22;11671;49.990;8.028;2023-02-15T05:14:38;3.70;99.90
23010;DHT22;11671;49.990;8.028;2023-02-15T05:17:04;3.70;99.90
23010;DHT22;11671;49.990;8.028;2023-02-15T05:19:30;3.70;99.90
23010;DHT22;11671;49.990;8.028;2023-02-15T05:21:56;3.70;99.90
23010;DHT22;11671;49.990;8.028;2023-02-15T05:24:21;3.70;99.90
23010;DHT22;11671;49.990;8.028;2023-02-15T05:27:06;3.60;99.90
23010;DHT22;11671;49.990;8.028;2023-02-15T05:29:50;3.70;99.90
23010;DHT22;11671;49.990;8.028;2023-02-15T05:32:15;3.60;99.90
23010;DHT22;11671;49.990;8.028;2023-02-15T05:34:41;3.70;99.90
23010;DHT22;11671;49.990;8.028;2023-02-15T05:37:07;3.70;99.90
23010;DHT22;11671;49.990;8.028;2023-02-15T05:39:33;3.70;99.90
23010;DHT22;11671;49.990;8.028;2023-02-15T05:41:59;3.70;99.90
23010;DHT22;11671;49.990;8.028;2023-02-15T05:44:25;3.70;99.90
23010;DHT22;11671;49.990;8.028;2023-02-15T05:46:50;3.80;99.90
23010;DHT22;11671;49.990;8.028;2023-02-15T05:49:16;3.70;99.90
23010;DHT22;11671;49.990;8.028;2023-02-15T05:51:41;3.70;99.90
23010;DHT22;11671;49.990;8.028;2023-02-15T05:54:07;3.70;99.90
23010;DHT22;11671;49.990;8.028;2023-02-15T05:56:32;3.70;99.90
23010;DHT22;11671;49.990;8.028;2023-02-15T05:58:58;3.70;99.90
23010;DHT22;11671;49.990;8.028;2023-02-15T06:01:23;3.70;99.90
23010;DHT22;11671;49.990;8.028;2023-02-15T06:03:49;3.70;99.90
23010;DHT22;11671;49.990;8.028;2023-02-15T06:06:15;3.60;99.90
23010;DHT22;11671;49.990;8.028;2023-02-15T06:08:40;3.60;99.90
23010;DHT22;11671;49.990;8.028;2023-02-15T06:11:06;3.60;99.90
23010;DHT22;11671;49.990;8.028;2023-02-15T06:13:33;3.50;99.90
23010;DHT22;11671;49.990;8.028;2023-02-15T06:15:58;3.50;99.90
23010;DHT22;11671;49.990;8.028;2023-02-15T06:18:24;3.50;99.90
23010;DHT22;11671;49.990;8.028;2023-02-15T06:20:50;3.40;99.90
23010;DHT22;11671;49.990;8.028;2023-02-15T06:23:16;3.40;99.90
23010;DHT22;11671;49.990;8.028;2023-02-15T06:25:41;3.30;99.90
23010;DHT22;11671;49.990;8.028;2023-02-15T06:28:07;3.30;99.90
23010;DHT22;11671;49.990;8.028;2023-02-15T06:30:33;3.40;99.90
23010;DHT22;11671;49.990;8.028;2023-02-15T06:32:58;3.40;99.90
23010;DHT22;11671;49.990;8.028;2023-02-15T06:35:24;3.40;99.90
23010;DHT22;11671;49.990;8.028;2023-02-15T06:37:50;3.50;99.90
23010;DHT22;11671;49.990;8.028;2023-02-15T06:40:16;3.50;99.90
23010;DHT22;11671;49.990;8.028;2023-02-15T06:42:42;3.40;99.90
23010;DHT22;11671;49.990;8.028;2023-02-15T06:45:08;3.30;99.90
23010;DHT22;11671;49.990;8.028;2023-02-15T06:47:34;3.20;99.90
23010;DHT22;11671;49.990;8.028;2023-02-15T06:49:59;3.20;99.90
23010;DHT22;11671;49.990;8.028;2023-02-15T06:52:25;3.30;99.90
23010;DHT22;11671;49.990;8.028;2023-02-15T06:54:51;3.40;99.90
23010;DHT22;11671;49.990;8.028;2023-02-15T06:57:16;3.50;99.90
23010;DHT22;11671;49.990;8.028;2023-02-15T06:59:42;3.50;99.90
23010;DHT22;11671;49.990;8.028;2023-02-15T07:02:10;3.50;99.90
23010;DHT22;11671;49.990;8.028;2023-02-15T07:04:36;3.60;99.90
23010;DHT22;11671;49.990;8.028;2023-02-15T07:07:01;3.70;99.90
23010;DHT22;11671;49.990;8.028;2023-02-15T07:09:27;3.80;99.90
23010;DHT22;11671;49.990;8.028;2023-02-15T07:11:53;3.90;99.90
23010;DHT22;11671;49.990;8.028;2023-02-15T07:14:36;4.00;99.90
23010;DHT22;11671;49.990;8.028;2023-02-15T07:17:02;3.90;99.90
23010;DHT22;11671;49.990;8.028;2023-02-15T07:19:28;3.80;99.90
23010;DHT22;11671;49.990;8.028;2023-02-15T07:21:54;3.80;99.90
23010;DHT22;11671;49.990;8.028;2023-02-15T07:24:20;3.90;99.90
23010;DHT22;11671;49.990;8.028;2023-02-15T07:26:45;3.90;99.90
23010;DHT22;11671;49.990;8.028;2023-02-15T07:29:11;3.90;99.90
23010;DHT22;11671;49.990;8.028;2023-02-15T07:31:37;3.90;99.90
23010;DHT22;11671;49.990;8.028;2023-02-15T07:34:02;4.00;99.90
23010;DHT22;11671;49.990;8.028;2023-02-15T07:36:28;4.10;99.90
23010;DHT22;11671;49.990;8.028;2023-02-15T07:38:53;4.10;99.90
23010;DHT22;11671;49.990;8.028;2023-02-15T07:41:19;4.10;99.90
23010;DHT22;11671;49.990;8.028;2023-02-15T07:43:44;4.10;99.90
23010;DHT22;11671;49.990;8.028;2023-02-15T07:46:13;4.20;99.90
23010;DHT22;11671;49.990;8.028;2023-02-15T07:48:40;4.30;99.90
23010;DHT22;11671;49.990;8.028;2023-02-15T07:51:07;4.30;99.90
23010;DHT22;11671;49.990;8.028;2023-02-15T07:53:35;4.30;99.90
23010;DHT22;11671;49.990;8.028;2023-02-15T07:56:02;4.40;99.90
23010;DHT22;11671;49.990;8.028;2023-02-15T07:58:28;4.20;99.90
23010;DHT22;11671;49.990;8.028;2023-02-15T08:01:13;4.10;99.90
23010;DHT22;11671;49.990;8.028;2023-02-15T08:03:39;4.00;99.90
23010;DHT22;11671;49.990;8.028;2023-02-15T08:06:04;4.00;99.90
23010;DHT22;11671;49.990;8.028;2023-02-15T08:08:30;3.90;99.90
23010;DHT22;11671;49.990;8.028;2023-02-15T08:13:49;3.90;99.90
23010;DHT22;11671;49.990;8.028;2023-02-15T08:19:09;4.00;99.90
23010;DHT22;11671;49.990;8.028;2023-02-15T08:21:37;4.00;99.90
23010;DHT22;11671;49.990;8.028;2023-02-15T08:24:04;3.90;99.90
23010;DHT22;11671;49.990;8.028;2023-02-15T08:26:30;3.80;99.90
23010;DHT22;11671;49.990;8.028;2023-02-15T08:28:59;3.90;99.90
23010;DHT22;11671;49.990;8.028;2023-02-15T08:31:24;3.90;99.90
23010;DHT22;11671;49.990;8.028;2023-02-15T08:33:52;4.00;99.90
23010;DHT22;11671;49.990;8.028;2023-02-15T08:36:20;3.90;99.90
23010;DHT22;11671;49.990;8.028;2023-02-15T08:38:47;4.00;99.90
23010;DHT22;11671;49.990;8.028;2023-02-15T08:41:30;4.00;99.90
23010;DHT22;11671;49.990;8.028;2023-02-15T08:43:58;3.90;99.90
23010;DHT22;11671;49.990;8.028;2023-02-15T08:46:27;4.00;99.90
23010;DHT22;11671;49.990;8.028;2023-02-15T08:48:52;4.00;99.90
23010;DHT22;11671;49.990;8.028;2023-02-15T08:51:27;4.00;99.90
23010;DHT22;11671;49.990;8.028;2023-02-15T08:53:56;4.00;99.90
23010;DHT22;11671;49.990;8.028;2023-02-15T08:56:29;4.20;99.90
23010;DHT22;11671;49.990;8.028;2023-02-15T08:58:57;4.30;99.90
23010;DHT22;11671;49.990;8.028;2023-02-15T09:01:25;4.30;99.90
23010;DHT22;11671;49.990;8.028;2023-02-15T09:03:55;4.50;99.90
23010;DHT22;11671;49.990;8.028;2023-02-15T09:06:22;4.40;99.90
23010;DHT22;11671;49.990;8.028;2023-02-15T09:08:48;4.60;99.90
23010;DHT22;11671;49.990;8.028;2023-02-15T09:11:19;4.40;99.90
23010;DHT22;11671;49.990;8.028;2023-02-15T09:13:51;4.40;99.90
23010;DHT22;11671;49.990;8.028;2023-02-15T09:16:19;4.40;99.90
23010;DHT22;11671;49.990;8.028;2023-02-15T09:18:45;4.40;99.90
23010;DHT22;11671;49.990;8.028;2023-02-15T09:21:13;4.40;99.90
23010;DHT22;11671;49.990;8.028;2023-02-15T09:23:43;4.40;99.90
23010;DHT22;11671;49.990;8.028;2023-02-15T09:26:12;4.40;99.90
23010;DHT22;11671;49.990;8.028;2023-02-15T09:28:38;4.20;99.90
23010;DHT22;11671;49.990;8.028;2023-02-15T09:31:11;4.10;99.90
23010;DHT22;11671;49.990;8.028;2023-02-15T09:33:38;4.00;99.90
23010;DHT22;11671;49.990;8.028;2023-02-15T09:36:05;4.20;99.90
23010;DHT22;11671;49.990;8.028;2023-02-15T09:38:31;4.20;99.90
23010;DHT22;11671;49.990;8.028;2023-02-15T09:49:39;4.20;99.90
23010;DHT22;11671;49.990;8.028;2023-02-15T09:57:34;4.20;99.90
23010;DHT22;11671;49.990;8.028;2023-02-15T10:02:51;4.30;99.90
23010;DHT22;11671;49.990;8.028;2023-02-15T10:05:50;4.20;99.90
23010;DHT22;11671;49.990;8.028;2023-02-15T10:19:28;4.50;99.90
23010;DHT22;11671;49.990;8.028;2023-02-15T10:22:32;4.50;99.90
23010;DHT22;11671;49.990;8.028;2023-02-15T10:27:32;4.60;99.90
23010;DHT22;11671;49.990;8.028;2023-02-15T10:30:13;4.70;99.90
23010;DHT22;11671;49.990;8.028;2023-02-15T10:32:56;4.70;99.90
23010;DHT22;11671;49.990;8.028;2023-02-15T10:35:31;4.70;99.90
23010;DHT22;11671;49.990;8.028;2023-02-15T10:38:28;4.70;99.90
23010;DHT22;11671;49.990;8.028;2023-02-15T10:46:52;5.00;99.90
23010;DHT22;11671;49.990;8.028;2023-02-15T10:52:02;4.90;99.90
23010;DHT22;11671;49.990;8.028;2023-02-15T11:08:00;5.10;99.90
23010;DHT22;11671;49.990;8.028;2023-02-15T11:13:06;5.20;99.90
23010;DHT22;11671;49.990;8.028;2023-02-15T11:15:36;5.30;99.90
23010;DHT22;11671;49.990;8.028;2023-02-15T11:21:00;5.10;99.90
23010;DHT22;11671;49.990;8.028;2023-02-15T11:23:27;5.10;99.90
23010;DHT22;11671;49.990;8.028;2023-02-15T11:25:59;5.10;99.90
23010;DHT22;11671;49.990;8.028;2023-02-15T11:28:33;5.10;99.90
23010;DHT22;11671;49.990;8.028;2023-02-15T11:31:12;5.10;99.90
23010;DHT22;11671;49.990;8.028;2023-02-15T11:33:43;5.10;99.90
23010;DHT22;11671;49.990;8.028;2023-02-15T11:36:15;5.30;99.90
23010;DHT22;11671;49.990;8.028;2023-02-15T11:38:42;5.30;99.90
23010;DHT22;11671;49.990;8.028;2023-02-15T11:41:12;5.30;99.90
23010;DHT22;11671;49.990;8.028;2023-02-15T11:43:53;5.20;99.90
23010;DHT22;11671;49.990;8.028;2023-02-15T11:46:20;5.30;99.90
23010;DHT22;11671;49.990;8.028;2023-02-15T11:48:47;5.30;99.90
23010;DHT22;11671;49.990;8.028;2023-02-15T11:51:16;5.30;99.90
23010;DHT22;11671;49.990;8.028;2023-02-15T11:53:43;5.30;99.90
23010;DHT22;11671;49.990;8.028;2023-02-15T11:56:22;5.20;99.90
23010;DHT22;11671;49.990;8.028;2023-02-15T12:01:32;5.40;99.90
23010;DHT22;11671;49.990;8.028;2023-02-15T12:04:06;5.50;99.90
23010;DHT22;11671;49.990;8.028;2023-02-15T12:06:44;5.40;99.90
23010;DHT22;11671;49.990;8.028;2023-02-15T12:14:55;5.20;99.90
23010;DHT22;11671;49.990;8.028;2023-02-15T12:17:24;5.30;99.90
23010;DHT22;11671;49.990;8.028;2023-02-15T12:19:52;5.20;99.90
23010;DHT22;11671;49.990;8.028;2023-02-15T12:24:52;5.30;99.90
23010;DHT22;11671;49.990;8.028;2023-02-15T12:27:22;5.40;99.90
23010;DHT22;11671;49.990;8.028;2023-02-15T12:30:01;5.50;99.90
23010;DHT22;11671;49.990;8.028;2023-02-15T12:32:33;5.30;99.90
23010;DHT22;11671;49.990;8.028;2023-02-15T12:35:06;5.20;99.90
23010;DHT22;11671;49.990;8.028;2023-02-15T12:37:33;5.30;99.90
23010;DHT22;11671;49.990;8.028;2023-02-15T12:40:01;5.40;99.90
23010;DHT22;11671;49.990;8.028;2023-02-15T12:42:41;5.40;99.90
23010;DHT22;11671;49.990;8.028;2023-02-15T12:45:27;5.50;99.90
23010;DHT22;11671;49.990;8.028;2023-02-15T12:50:39;5.40;99.90
23010;DHT22;11671;49.990;8.028;2023-02-15T12:53:30;5.40;99.90
23010;DHT22;11671;49.990;8.028;2023-02-15T12:58:37;5.80;99.90
23010;DHT22;11671;49.990;8.028;2023-02-15T13:03:28;5.90;99.90
23010;DHT22;11671;49.990;8.028;2023-02-15T13:05:54;5.90;99.90
23010;DHT22;11671;49.990;8.028;2023-02-15T13:08:29;5.80;99.90
23010;DHT22;11671;49.990;8.028;2023-02-15T13:13:27;5.70;99.90
23010;DHT22;11671;49.990;8.028;2023-02-15T13:16:09;5.70;99.90
23010;DHT22;11671;49.990;8.028;2023-02-15T13:18:41;5.70;99.90
23010;DHT22;11671;49.990;8.028;2023-02-15T13:21:20;5.70;99.90
23010;DHT22;11671;49.990;8.028;2023-02-15T13:24:00;5.90;99.90
23010;DHT22;11671;49.990;8.028;2023-02-15T13:26:30;5.90;99.90
23010;DHT22;11671;49.990;8.028;2023-02-15T13:29:00;5.90;99.90
23010;DHT22;11671;49.990;8.028;2023-02-15T13:31:29;5.80;99.90
23010;DHT22;11671;49.990;8.028;2023-02-15T13:47:45;5.70;99.90
23010;DHT22;11671;49.990;8.028;2023-02-15T14:05:21;5.80;99.90
23010;DHT22;11671;49.990;8.028;2023-02-15T14:10:44;5.90;99.90
23010;DHT22;11671;49.990;8.028;2023-02-15T14:13:49;6.00;99.90
23010;DHT22;11671;49.990;8.028;2023-02-15T14:16:48;6.00;99.90
23010;DHT22;11671;49.990;8.028;2023-02-15T14:30:37;5.90;99.90
23010;DHT22;11671;49.990;8.028;2023-02-15T14:33:28;6.00;99.90
23010;DHT22;11671;49.990;8.028;2023-02-15T14:35:53;5.70;99.90
23010;DHT22;11671;49.990;8.028;2023-02-15T14:44:30;5.60;99.90
23010;DHT22;11671;49.990;8.028;2023-02-15T14:47:02;5.70;99.90
23010;DHT22;11671;49.990;8.028;2023-02-15T14:49:36;5.70;99.90
23010;DHT22;11671;49.990;8.028;2023-02-15T14:52:05;5.70;99.90
23010;DHT22;11671;49.990;8.028;2023-02-15T14:59:27;5.60;99.90
23010;DHT22;11671;49.990;8.028;2023-02-15T15:07:08;5.70;99.90
23010;DHT22;11671;49.990;8.028;2023-02-15T15:09:37;5.70;99.90
23010;DHT22;11671;49.990;8.028;2023-02-15T15:14:45;5.60;99.90
23010;DHT22;11671;49.990;8.028;2023-02-15T15:17:12;5.70;99.90
23010;DHT22;11671;49.990;8.028;2023-02-15T15:22:27;5.70;99.90
23010;DHT22;11671;49.990;8.028;2023-02-15T15:24:59;5.60;99.90
23010;DHT22;11671;49.990;8.028;2023-02-15T15:41:19;5.50;99.90
23010;DHT22;11671;49.990;8.028;2023-02-15T15:50:12;5.50;99.90
23010;DHT22;11671;49.990;8.028;2023-02-15T15:52:38;5.50;99.90
23010;DHT22;11671;49.990;8.028;2023-02-15T15:55:18;5.40;99.90
23010;DHT22;11671;49.990;8.028;2023-02-15T15:57:46;5.30;99.90
23010;DHT22;11671;49.990;8.028;2023-02-15T16:00:32;5.40;99.90
23010;DHT22;11671;49.990;8.028;2023-02-15T16:02:59;5.40;99.90
23010;DHT22;11671;49.990;8.028;2023-02-15T16:05:25;5.30;99.90
23010;DHT22;11671;49.990;8.028;2023-02-15T16:07:51;5.20;99.90
23010;DHT22;11671;49.990;8.028;2023-02-15T16:10:23;5.30;99.90
23010;DHT22;11671;49.990;8.028;2023-02-15T16:12:50;5.40;99.90
23010;DHT22;11671;49.990;8.028;2023-02-15T16:15:45;5.40;99.90
23010;DHT22;11671;49.990;8.028;2023-02-15T16:18:16;5.40;99.90
23010;DHT22;11671;49.990;8.028;2023-02-15T16:20:58;5.40;99.90
23010;DHT22;11671;49.990;8.028;2023-02-15T16:26:27;5.60;99.90
23010;DHT22;11671;49.990;8.028;2023-02-15T16:28:58;5.50;99.90
23010;DHT22;11671;49.990;8.028;2023-02-15T16:31:23;5.50;99.90
23010;DHT22;11671;49.990;8.028;2023-02-15T16:33:52;5.50;99.90
23010;DHT22;11671;49.990;8.028;2023-02-15T16:36:24;5.40;99.90
23010;DHT22;11671;49.990;8.028;2023-02-15T16:43:44;5.30;99.90
23010;DHT22;11671;49.990;8.028;2023-02-15T16:46:13;5.20;99.90
23010;DHT22;11671;49.990;8.028;2023-02-15T16:48:43;5.10;99.90
23010;DHT22;11671;49.990;8.028;2023-02-15T16:51:09;5.10;99.90
23010;DHT22;11671;49.990;8.028;2023-02-15T16:53:36;5.00;99.90
23010;DHT22;11671;49.990;8.028;2023-02-15T16:56:04;4.90;99.90
23010;DHT22;11671;49.990;8.028;2023-02-15T16:58:44;5.00;99.90
23010;DHT22;11671;49.990;8.028;2023-02-15T17:01:13;5.10;99.90
23010;DHT22;11671;49.990;8.028;2023-02-15T17:03:40;5.10;99.90
23010;DHT22;11671;49.990;8.028;2023-02-15T17:06:21;5.10;99.90
23010;DHT22;11671;49.990;8.028;2023-02-15T17:08:47;5.20;99.90
23010;DHT22;11671;49.990;8.028;2023-02-15T17:16:34;5.30;99.90
23010;DHT22;11671;49.990;8.028;2023-02-15T17:19:01;5.30;99.90
23010;DHT22;11671;49.990;8.028;2023-02-15T17:21:41;5.10;99.90
23010;DHT22;11671;49.990;8.028;2023-02-15T17:24:21;5.20;99.90
23010;DHT22;11671;49.990;8.028;2023-02-15T17:26:55;5.20;99.90
23010;DHT22;11671;49.990;8.028;2023-02-15T17:29:39;5.20;99.90
23010;DHT22;11671;49.990;8.028;2023-02-15T17:32:17;5.20;99.90
23010;DHT22;11671;49.990;8.028;2023-02-15T17:35:17;5.10;99.90
23010;DHT22;11671;49.990;8.028;2023-02-15T17:37:47;5.00;99.90
23010;DHT22;11671;49.990;8.028;2023-02-15T17:40:37;5.00;99.90
23010;DHT22;11671;49.990;8.028;2023-02-15T17:43:03;5.10;99.90
23010;DHT22;11671;49.990;8.028;2023-02-15T17:45:35;5.10;99.90
23010;DHT22;11671;49.990;8.028;2023-02-15T17:48:04;5.00;99.90
23010;DHT22;11671;49.990;8.028;2023-02-15T17:50:31;5.00;99.90
23010;DHT22;11671;49.990;8.028;2023-02-15T17:52:58;5.10;99.90
23010;DHT22;11671;49.990;8.028;2023-02-15T17:55:24;5.10;99.90
23010;DHT22;11671;49.990;8.028;2023-02-15T17:58:10;5.00;99.90
23010;DHT22;11671;49.990;8.028;2023-02-15T18:00:39;4.90;99.90
23010;DHT22;11671;49.990;8.028;2023-02-15T18:03:29;4.90;99.90
23010;DHT22;11671;49.990;8.028;2023-02-15T18:06:17;4.80;99.90
23010;DHT22;11671;49.990;8.028;2023-02-15T18:09:01;4.90;99.90
23010;DHT22;11671;49.990;8.028;2023-02-15T18:11:45;4.90;99.90
23010;DHT22;11671;49.990;8.028;2023-02-15T18:14:13;4.80;99.90
23010;DHT22;11671;49.990;8.028;2023-02-15T18:16:41;4.80;99.90
23010;DHT22;11671;49.990;8.028;2023-02-15T18:19:17;4.70;99.90
23010;DHT22;11671;49.990;8.028;2023-02-15T18:21:44;4.70;99.90
23010;DHT22;11671;49.990;8.028;2023-02-15T18:24:21;4.80;99.90
23010;DHT22;11671;49.990;8.028;2023-02-15T18:26:49;4.70;99.90
23010;DHT22;11671;49.990;8.028;2023-02-15T18:29:15;4.70;99.90
23010;DHT22;11671;49.990;8.028;2023-02-15T18:31:43;4.80;99.90
23010;DHT22;11671;49.990;8.028;2023-02-15T18:34:32;4.90;99.90
23010;DHT22;11671;49.990;8.028;2023-02-15T18:37:00;4.90;99.90
23010;DHT22;11671;49.990;8.028;2023-02-15T18:39:44;4.90;99.90
23010;DHT22;11671;49.990;8.028;2023-02-15T18:42:29;4.90;99.90
23010;DHT22;11671;49.990;8.028;2023-02-15T18:44:58;4.90;99.90
23010;DHT22;11671;49.990;8.028;2023-02-15T18:47:24;4.80;99.90
23010;DHT22;11671;49.990;8.028;2023-02-15T18:49:50;4.60;99.90
23010;DHT22;11671;49.990;8.028;2023-02-15T18:52:20;4.50;99.90
23010;DHT22;11671;49.990;8.028;2023-02-15T18:54:48;4.60;99.90
23010;DHT22;11671;49.990;8.028;2023-02-15T18:57:15;4.60;99.90
23010;DHT22;11671;49.990;8.028;2023-02-15T18:59:41;4.50;99.90
23010;DHT22;11671;49.990;8.028;2023-02-15T19:02:15;4.50;99.90
23010;DHT22;11671;49.990;8.028;2023-02-15T19:04:41;4.60;99.90
23010;DHT22;11671;49.990;8.028;2023-02-15T19:07:22;4.60;99.90
23010;DHT22;11671;49.990;8.028;2023-02-15T19:09:51;4.60;99.90
23010;DHT22;11671;49.990;8.028;2023-02-15T19:12:17;4.50;99.90
23010;DHT22;11671;49.990;8.028;2023-02-15T19:14:46;4.60;99.90
23010;DHT22;11671;49.990;8.028;2023-02-15T19:17:17;4.60;99.90
23010;DHT22;11671;49.990;8.028;2023-02-15T19:19:44;4.70;99.90
23010;DHT22;11671;49.990;8.028;2023-02-15T19:22:20;4.60;99.90
23010;DHT22;11671;49.990;8.028;2023-02-15T19:24:47;4.50;99.90
23010;DHT22;11671;49.990;8.028;2023-02-15T19:27:36;4.50;99.90
23010;DHT22;11671;49.990;8.028;2023-02-15T19:30:17;4.50;99.90
23010;DHT22;11671;49.990;8.028;2023-02-15T19:32:44;4.60;99.90
23010;DHT22;11671;49.990;8.028;2023-02-15T19:35:15;4.70;99.90
23010;DHT22;11671;49.990;8.028;2023-02-15T19:37:43;4.70;99.90
23010;DHT22;11671;49.990;8.028;2023-02-15T19:40:30;4.80;99.90
23010;DHT22;11671;49.990;8.028;2023-02-15T19:42:56;4.70;99.90